sensor_id;sensor_type;location;lat;lon;timestamp;pressure;altitude;pressure_sealevel;temperature;humidity
56270;BME280;42176;43.240;27.880;2023-12-07T00:00:32;99927.91;;;7.60;100.00
56270;BME280;42176;43.240;27.880;2023-12-07T00:02:33;99917.16;;;7.04;100.00
56270;BME280;42176;43.240;27.880;2023-12-07T00:04:33;99931.19;;;7.09;100.00
56270;BME280;42176;43.240;27.880;2023-12-07T00:06:34;99913.97;;;7.52;100.00
56270;BME280;42176;43.240;27.880;2023-12-07T00:08:34;99963.66;;;7.85;100.00
56270;BME280;42176;43.240;27.880;2023-12-07T00:10:35;99929.00;;;7.45;100.00
56270;BME280;42176;43.240;27.880;2023-12-07T00:12:35;99939.06;;;7.11;100.00
56270;BME280;42176;43.240;27.880;2023-12-07T00:14:36;99935.44;;;7.21;100.00
56270;BME280;42176;43.240;27.880;2023-12-07T00:16:37;99921.72;;;7.63;100.00
56270;BME280;42176;43.240;27.880;2023-12-07T00:18:38;99931.06;;;7.87;100.00
56270;BME280;42176;43.240;27.880;2023-12-07T00:20:38;99928.81;;;7.61;100.00
56270;BME280;42176;43.240;27.880;2023-12-07T00:22:39;99919.81;;;7.01;100.00
56270;BME280;42176;43.240;27.880;2023-12-07T00:24:40;99925.00;;;7.13;100.00
56270;BME280;42176;43.240;27.880;2023-12-07T00:26:40;99934.16;;;7.55;100.00
56270;BME280;42176;43.240;27.880;2023-12-07T00:28:41;99944.47;;;7.73;100.00
56270;BME280;42176;43.240;27.880;2023-12-07T00:30:41;99949.53;;;7.89;100.00
56270;BME280;42176;43.240;27.880;2023-12-07T00:32:42;99951.34;;;7.84;100.00
56270;BME280;42176;43.240;27.880;2023-12-07T00:34:43;99923.81;;;7.36;100.00
56270;BME280;42176;43.240;27.880;2023-12-07T00:36:44;99931.19;;;7.09;100.00
56270;BME280;42176;43.240;27.880;2023-12-07T00:38:45;99934.28;;;7.45;100.00
56270;BME280;42176;43.240;27.880;2023-12-07T00:40:46;99951.03;;;8.08;100.00
56270;BME280;42176;43.240;27.880;2023-12-07T00:42:46;99948.25;;;7.51;100.00
56270;BME280;42176;43.240;27.880;2023-12-07T00:44:47;99934.72;;;7.05;100.00
56270;BME280;42176;43.240;27.880;2023-12-07T00:46:48;99932.84;;;7.16;100.00
56270;BME280;42176;43.240;27.880;2023-12-07T00:48:49;99941.25;;;7.51;100.00
56270;BME280;42176;43.240;27.880;2023-12-07T00:50:50;99935.53;;;7.85;100.00
56270;BME280;42176;43.240;27.880;2023-12-07T00:52:50;99945.00;;;7.30;100.00
56270;BME280;42176;43.240;27.880;2023-12-07T00:54:51;99945.44;;;6.90;100.00
56270;BME280;42176;43.240;27.880;2023-12-07T00:56:51;99931.88;;;7.25;100.00
56270;BME280;42176;43.240;27.880;2023-12-07T00:58:52;99933.19;;;7.60;100.00
56270;BME280;42176;43.240;27.880;2023-12-07T01:00:53;99950.56;;;7.77;100.00
56270;BME280;42176;43.240;27.880;2023-12-07T01:02:53;99946.00;;;7.21;100.00
56270;BME280;42176;43.240;27.880;2023-12-07T01:04:54;99918.94;;;7.02;100.00
56270;BME280;42176;43.240;27.880;2023-12-07T01:06:54;99925.53;;;7.40;100.00
56270;BME280;42176;43.240;27.880;2023-12-07T01:08:55;99921.50;;;7.78;100.00
56270;BME280;42176;43.240;27.880;2023-12-07T01:10:55;99918.25;;;7.61;100.00
56270;BME280;42176;43.240;27.880;2023-12-07T01:12:56;99900.47;;;7.07;100.00
56270;BME280;42176;43.240;27.880;2023-12-07T01:14:56;99894.44;;;6.94;100.00
56270;BME280;42176;43.240;27.880;2023-12-07T01:16:57;99914.06;;;7.44;100.00
56270;BME280;42176;43.240;27.880;2023-12-07T01:18:57;99903.19;;;7.69;100.00
56270;BME280;42176;43.240;27.880;2023-12-07T01:20:58;99944.47;;;7.73;100.00
56270;BME280;42176;43.240;27.880;2023-12-07T01:22:58;99900.25;;;7.24;100.00
56270;BME280;42176;43.240;27.880;2023-12-07T01:24:59;99892.66;;;6.99;100.00
56270;BME280;42176;43.240;27.880;2023-12-07T01:26:59;99921.28;;;7.30;100.00
56270;BME280;42176;43.240;27.880;2023-12-07T01:29:00;99897.94;;;7.66;100.00
56270;BME280;42176;43.240;27.880;2023-12-07T01:31:01;99901.38;;;7.74;100.00
56270;BME280;42176;43.240;27.880;2023-12-07T01:33:02;99897.69;;;7.18;100.00
56270;BME280;42176;43.240;27.880;2023-12-07T01:35:03;99909.28;;;7.03;100.00
56270;BME280;42176;43.240;27.880;2023-12-07T01:37:03;99900.13;;;7.33;100.00
56270;BME280;42176;43.240;27.880;2023-12-07T01:39:05;99900.63;;;7.63;100.00
56270;BME280;42176;43.240;27.880;2023-12-07T01:41:06;99900.59;;;7.66;100.00
56270;BME280;42176;43.240;27.880;2023-12-07T01:43:06;99900.38;;;7.13;100.00
56270;BME280;42176;43.240;27.880;2023-12-07T01:45:07;99887.59;;;6.77;100.00
56270;BME280;42176;43.240;27.880;2023-12-07T01:47:08;99912.53;;;7.25;100.00
56270;BME280;42176;43.240;27.880;2023-12-07T01:49:10;99896.31;;;7.57;100.00
56270;BME280;42176;43.240;27.880;2023-12-07T01:51:11;99901.75;;;8.07;100.00
56270;BME280;42176;43.240;27.880;2023-12-07T01:53:12;99907.16;;;7.34;100.00
56270;BME280;42176;43.240;27.880;2023-12-07T01:55:13;99890.91;;;6.98;100.00
56270;BME280;42176;43.240;27.880;2023-12-07T01:57:14;99883.78;;;7.03;100.00
56270;BME280;42176;43.240;27.880;2023-12-07T01:59:15;99895.69;;;7.38;100.00
56270;BME280;42176;43.240;27.880;2023-12-07T02:01:16;99899.44;;;7.86;100.00
56270;BME280;42176;43.240;27.880;2023-12-07T02:03:17;99893.19;;;7.24;100.00
56270;BME280;42176;43.240;27.880;2023-12-07T02:05:18;99889.31;;;6.80;100.00
56270;BME280;42176;43.240;27.880;2023-12-07T02:07:18;99894.16;;;7.19;100.00
56270;BME280;42176;43.240;27.880;2023-12-07T02:09:19;99906.16;;;7.44;100.00
56270;BME280;42176;43.240;27.880;2023-12-07T02:11:20;99919.91;;;7.70;100.00
56270;BME280;42176;43.240;27.880;2023-12-07T02:13:21;99897.78;;;7.11;100.00
56270;BME280;42176;43.240;27.880;2023-12-07T02:15:22;99906.91;;;6.76;100.00
56270;BME280;42176;43.240;27.880;2023-12-07T02:17:35;99913.66;;;7.02;100.00
56270;BME280;42176;43.240;27.880;2023-12-07T02:22:38;99893.22;;;7.90;100.00
56270;BME280;42176;43.240;27.880;2023-12-07T02:24:47;99938.84;;;7.31;100.00
56270;BME280;42176;43.240;27.880;2023-12-07T02:26:50;99926.09;;;6.91;100.00
56270;BME280;42176;43.240;27.880;2023-12-07T02:28:50;99899.78;;;6.88;100.00
56270;BME280;42176;43.240;27.880;2023-12-07T02:30:51;99912.53;;;7.28;100.00
56270;BME280;42176;43.240;27.880;2023-12-07T02:32:51;99904.03;;;7.71;100.00
56270;BME280;42176;43.240;27.880;2023-12-07T02:34:52;99902.75;;;7.33;100.00
56270;BME280;42176;43.240;27.880;2023-12-07T02:36:53;99906.81;;;6.85;100.00
56270;BME280;42176;43.240;27.880;2023-12-07T02:38:57;99916.59;;;6.76;100.00
56270;BME280;42176;43.240;27.880;2023-12-07T02:40:59;99907.53;;;7.01;100.00
56270;BME280;42176;43.240;27.880;2023-12-07T02:43:00;99916.81;;;7.35;100.00
56270;BME280;42176;43.240;27.880;2023-12-07T02:45:04;99897.28;;;7.49;100.00
56270;BME280;42176;43.240;27.880;2023-12-07T02:47:08;99898.63;;;7.81;100.00
56270;BME280;42176;43.240;27.880;2023-12-07T02:49:08;99915.97;;;7.31;100.00
56270;BME280;42176;43.240;27.880;2023-12-07T02:51:09;99912.06;;;6.89;100.00
56270;BME280;42176;43.240;27.880;2023-12-07T02:53:10;99905.19;;;6.74;100.00
56270;BME280;42176;43.240;27.880;2023-12-07T02:55:11;99897.81;;;7.07;100.00
56270;BME280;42176;43.240;27.880;2023-12-07T02:57:11;99898.88;;;7.64;100.00
56270;BME280;42176;43.240;27.880;2023-12-07T02:59:12;99897.84;;;7.02;100.00
56270;BME280;42176;43.240;27.880;2023-12-07T03:01:12;99914.06;;;6.63;100.00
56270;BME280;42176;43.240;27.880;2023-12-07T03:03:13;99882.44;;;6.68;100.00
56270;BME280;42176;43.240;27.880;2023-12-07T03:05:13;99889.91;;;7.07;100.00
56270;BME280;42176;43.240;27.880;2023-12-07T03:07:14;99928.91;;;7.52;100.00
56270;BME280;42176;43.240;27.880;2023-12-07T03:09:15;99933.91;;;6.98;100.00
56270;BME280;42176;43.240;27.880;2023-12-07T03:11:15;99905.28;;;6.66;100.00
56270;BME280;42176;43.240;27.880;2023-12-07T03:13:16;99930.78;;;6.61;100.00
56270;BME280;42176;43.240;27.880;2023-12-07T03:15:16;99908.38;;;7.05;100.00
56270;BME280;42176;43.240;27.880;2023-12-07T03:17:17;99917.75;;;7.31;100.00
56270;BME280;42176;43.240;27.880;2023-12-07T03:19:17;99913.31;;;7.33;100.00
56270;BME280;42176;43.240;27.880;2023-12-07T03:21:18;99906.00;;;6.83;100.00
56270;BME280;42176;43.240;27.880;2023-12-07T03:23:18;99899.16;;;6.61;100.00
56270;BME280;42176;43.240;27.880;2023-12-07T03:25:19;99910.59;;;6.60;100.00
56270;BME280;42176;43.240;27.880;2023-12-07T03:27:20;99907.50;;;7.05;100.00
56270;BME280;42176;43.240;27.880;2023-12-07T03:29:21;99898.53;;;7.21;100.00
56270;BME280;42176;43.240;27.880;2023-12-07T03:31:21;99932.44;;;7.51;100.00
56270;BME280;42176;43.240;27.880;2023-12-07T03:33:22;99903.22;;;6.96;100.00
56270;BME280;42176;43.240;27.880;2023-12-07T03:35:23;99905.31;;;6.63;100.00
56270;BME280;42176;43.240;27.880;2023-12-07T03:37:23;99902.47;;;6.80;100.00
56270;BME280;42176;43.240;27.880;2023-12-07T03:39:24;99909.16;;;7.12;100.00
56270;BME280;42176;43.240;27.880;2023-12-07T03:41:26;99928.03;;;7.53;100.00
56270;BME280;42176;43.240;27.880;2023-12-07T03:43:26;99918.91;;;7.05;100.00
56270;BME280;42176;43.240;27.880;2023-12-07T03:45:27;99900.06;;;6.61;100.00
56270;BME280;42176;43.240;27.880;2023-12-07T03:47:28;99890.53;;;6.43;100.00
56270;BME280;42176;43.240;27.880;2023-12-07T03:49:29;99895.31;;;6.96;100.00
56270;BME280;42176;43.240;27.880;2023-12-07T03:51:29;99880.97;;;7.20;100.00
56270;BME280;42176;43.240;27.880;2023-12-07T03:53:30;99905.59;;;7.19;100.00
56270;BME280;42176;43.240;27.880;2023-12-07T03:55:30;99932.41;;;6.74;100.00
56270;BME280;42176;43.240;27.880;2023-12-07T03:57:31;99905.53;;;6.38;100.00
56270;BME280;42176;43.240;27.880;2023-12-07T03:59:32;99897.16;;;6.86;100.00
56270;BME280;42176;43.240;27.880;2023-12-07T04:01:33;99916.19;;;7.13;100.00
56270;BME280;42176;43.240;27.880;2023-12-07T04:03:33;99906.44;;;7.20;100.00
56270;BME280;42176;43.240;27.880;2023-12-07T04:05:35;99916.59;;;6.74;100.00
56270;BME280;42176;43.240;27.880;2023-12-07T04:07:35;99902.72;;;6.57;100.00
56270;BME280;42176;43.240;27.880;2023-12-07T04:09:36;99894.03;;;6.48;100.00
56270;BME280;42176;43.240;27.880;2023-12-07T04:11:36;99912.06;;;6.89;100.00
56270;BME280;42176;43.240;27.880;2023-12-07T04:13:37;99911.88;;;7.07;100.00
56270;BME280;42176;43.240;27.880;2023-12-07T04:15:37;99915.25;;;7.19;100.00
56270;BME280;42176;43.240;27.880;2023-12-07T04:17:38;99901.81;;;6.61;100.00
56270;BME280;42176;43.240;27.880;2023-12-07T04:19:38;99896.84;;;6.23;100.00
56270;BME280;42176;43.240;27.880;2023-12-07T04:21:39;99903.06;;;6.16;100.00
56270;BME280;42176;43.240;27.880;2023-12-07T04:23:39;99900.41;;;6.22;100.00
56270;BME280;42176;43.240;27.880;2023-12-07T04:25:40;99892.25;;;6.50;100.00
56270;BME280;42176;43.240;27.880;2023-12-07T04:27:41;99900.88;;;6.63;100.00
56270;BME280;42176;43.240;27.880;2023-12-07T04:29:41;99904.88;;;6.09;100.00
56270;BME280;42176;43.240;27.880;2023-12-07T04:31:42;99886.66;;;5.74;100.00
56270;BME280;42176;43.240;27.880;2023-12-07T04:33:42;99902.41;;;5.77;100.00
56270;BME280;42176;43.240;27.880;2023-12-07T04:35:43;99921.50;;;6.15;100.00
56270;BME280;42176;43.240;27.880;2023-12-07T04:37:43;99905.44;;;6.47;100.00
56270;BME280;42176;43.240;27.880;2023-12-07T04:39:44;99905.59;;;6.29;100.00
56270;BME280;42176;43.240;27.880;2023-12-07T04:41:44;99897.19;;;5.71;100.00
56270;BME280;42176;43.240;27.880;2023-12-07T04:43:45;99904.31;;;5.53;100.00
56270;BME280;42176;43.240;27.880;2023-12-07T04:45:46;99889.47;;;5.37;100.00
56270;BME280;42176;43.240;27.880;2023-12-07T04:47:46;99881.44;;;5.64;100.00
56270;BME280;42176;43.240;27.880;2023-12-07T04:49:47;99916.31;;;5.99;100.00
56270;BME280;42176;43.240;27.880;2023-12-07T04:51:47;99923.28;;;6.08;100.00
56270;BME280;42176;43.240;27.880;2023-12-07T04:53:48;99927.09;;;5.57;100.00
56270;BME280;42176;43.240;27.880;2023-12-07T04:55:48;99925.41;;;5.31;100.00
56270;BME280;42176;43.240;27.880;2023-12-07T04:57:50;99920.88;;;5.68;100.00
56270;BME280;42176;43.240;27.880;2023-12-07T04:59:51;99926.84;;;5.94;100.00
56270;BME280;42176;43.240;27.880;2023-12-07T05:01:51;99924.13;;;6.16;100.00
56270;BME280;42176;43.240;27.880;2023-12-07T05:03:52;99925.16;;;5.90;100.00
56270;BME280;42176;43.240;27.880;2023-12-07T05:05:52;99931.53;;;5.38;100.00
56270;BME280;42176;43.240;27.880;2023-12-07T05:07:53;99923.69;;;5.27;100.00
56270;BME280;42176;43.240;27.880;2023-12-07T05:09:54;99904.38;;;5.44;100.00
56270;BME280;42176;43.240;27.880;2023-12-07T05:11:54;99901.53;;;5.76;100.00
56270;BME280;42176;43.240;27.880;2023-12-07T05:13:55;99917.16;;;6.11;100.00
56270;BME280;42176;43.240;27.880;2023-12-07T05:15:55;99937.59;;;5.51;100.00
56270;BME280;42176;43.240;27.880;2023-12-07T05:17:56;99915.84;;;5.20;100.00
56270;BME280;42176;43.240;27.880;2023-12-07T05:19:56;99924.53;;;5.37;100.00
56270;BME280;42176;43.240;27.880;2023-12-07T05:21:57;99909.47;;;5.72;100.00
56270;BME280;42176;43.240;27.880;2023-12-07T05:23:57;99915.50;;;5.88;100.00
56270;BME280;42176;43.240;27.880;2023-12-07T05:25:58;99918.09;;;6.02;100.00
56270;BME280;42176;43.240;27.880;2023-12-07T05:28:00;99897.13;;;5.77;100.00
56270;BME280;42176;43.240;27.880;2023-12-07T05:30:00;99894.81;;;5.24;100.00
56270;BME280;42176;43.240;27.880;2023-12-07T05:32:01;99900.09;;;5.12;100.00
56270;BME280;42176;43.240;27.880;2023-12-07T05:34:02;99900.94;;;5.20;100.00
56270;BME280;42176;43.240;27.880;2023-12-07T05:36:04;99925.38;;;5.45;100.00
56270;BME280;42176;43.240;27.880;2023-12-07T05:38:04;99915.59;;;5.72;100.00
56270;BME280;42176;43.240;27.880;2023-12-07T05:40:05;99946.31;;;5.62;100.00
56270;BME280;42176;43.240;27.880;2023-12-07T05:42:06;99929.84;;;5.17;100.00
56270;BME280;42176;43.240;27.880;2023-12-07T05:44:07;99911.50;;;5.05;100.00
56270;BME280;42176;43.240;27.880;2023-12-07T05:46:08;99918.44;;;5.27;100.00
56270;BME280;42176;43.240;27.880;2023-12-07T05:48:09;99921.81;;;5.57;100.00
56270;BME280;42176;43.240;27.880;2023-12-07T05:50:10;99934.03;;;5.71;100.00
56270;BME280;42176;43.240;27.880;2023-12-07T05:52:10;99933.34;;;5.16;100.00
56270;BME280;42176;43.240;27.880;2023-12-07T05:54:11;99908.03;;;4.96;100.00
56270;BME280;42176;43.240;27.880;2023-12-07T05:56:12;99919.31;;;5.29;100.00
56270;BME280;42176;43.240;27.880;2023-12-07T05:58:13;99924.44;;;5.59;100.00
56270;BME280;42176;43.240;27.880;2023-12-07T06:00:14;99933.88;;;5.92;100.00
56270;BME280;42176;43.240;27.880;2023-12-07T06:02:16;99925.47;;;5.28;100.00
56270;BME280;42176;43.240;27.880;2023-12-07T06:04:17;99929.94;;;4.92;100.00
56270;BME280;42176;43.240;27.880;2023-12-07T06:06:17;99921.97;;;5.14;100.00
56270;BME280;42176;43.240;27.880;2023-12-07T06:08:19;99945.59;;;5.23;100.00
56270;BME280;42176;43.240;27.880;2023-12-07T06:10:20;99927.19;;;5.34;100.00
56270;BME280;42176;43.240;27.880;2023-12-07T06:12:20;99928.91;;;5.37;100.00
56270;BME280;42176;43.240;27.880;2023-12-07T06:14:22;99917.50;;;5.39;100.00
56270;BME280;42176;43.240;27.880;2023-12-07T06:16:25;99922.75;;;5.42;100.00
56270;BME280;42176;43.240;27.880;2023-12-07T06:18:26;99914.75;;;5.66;100.00
56270;BME280;42176;43.240;27.880;2023-12-07T06:20:27;99933.06;;;5.81;100.00
56270;BME280;42176;43.240;27.880;2023-12-07T06:22:28;99920.75;;;5.89;100.00
56270;BME280;42176;43.240;27.880;2023-12-07T06:24:29;99926.88;;;5.96;100.00
56270;BME280;42176;43.240;27.880;2023-12-07T06:26:30;99926.78;;;6.10;100.00
56270;BME280;42176;43.240;27.880;2023-12-07T06:28:31;99937.59;;;5.57;100.00
56270;BME280;42176;43.240;27.880;2023-12-07T06:30:32;99925.47;;;5.16;100.00
56270;BME280;42176;43.240;27.880;2023-12-07T06:32:33;99919.41;;;4.94;100.00
56270;BME280;42176;43.240;27.880;2023-12-07T06:34:39;99930.72;;;5.22;100.00
56270;BME280;42176;43.240;27.880;2023-12-07T06:36:40;99923.63;;;5.44;100.00
56270;BME280;42176;43.240;27.880;2023-12-07T06:38:40;99982.22;;;5.74;100.00
56270;BME280;42176;43.240;27.880;2023-12-07T06:40:41;99956.78;;;5.79;100.00
56270;BME280;42176;43.240;27.880;2023-12-07T06:42:42;99942.06;;;5.30;100.00
56270;BME280;42176;43.240;27.880;2023-12-07T06:44:49;99924.69;;;4.83;100.00
56270;BME280;42176;43.240;27.880;2023-12-07T06:46:49;99943.88;;;5.21;100.00
56270;BME280;42176;43.240;27.880;2023-12-07T06:48:50;99952.50;;;5.54;100.00
56270;BME280;42176;43.240;27.880;2023-12-07T06:50:50;99941.88;;;5.72;100.00
56270;BME280;42176;43.240;27.880;2023-12-07T06:52:51;99960.19;;;6.02;100.00
56270;BME280;42176;43.240;27.880;2023-12-07T06:54:52;99967.41;;;5.50;100.00
56270;BME280;42176;43.240;27.880;2023-12-07T06:56:52;99955.28;;;5.12;100.00
56270;BME280;42176;43.240;27.880;2023-12-07T06:58:53;99976.31;;;5.06;100.00
56270;BME280;42176;43.240;27.880;2023-12-07T07:00:54;99970.13;;;5.25;100.00
56270;BME280;42176;43.240;27.880;2023-12-07T07:02:54;99961.34;;;5.34;100.00
56270;BME280;42176;43.240;27.880;2023-12-07T07:04:55;99991.94;;;5.49;100.00
56270;BME280;42176;43.240;27.880;2023-12-07T07:06:55;99985.84;;;5.48;100.00
56270;BME280;42176;43.240;27.880;2023-12-07T07:08:57;99983.97;;;5.72;100.00
56270;BME280;42176;43.240;27.880;2023-12-07T07:10:57;99977.63;;;6.17;100.00
56270;BME280;42176;43.240;27.880;2023-12-07T07:13:01;99966.56;;;5.45;100.00
56270;BME280;42176;43.240;27.880;2023-12-07T07:15:07;99969.31;;;5.05;100.00
56270;BME280;42176;43.240;27.880;2023-12-07T07:17:08;99987.69;;;5.12;100.00
56270;BME280;42176;43.240;27.880;2023-12-07T07:19:10;99979.72;;;5.45;100.00
56270;BME280;42176;43.240;27.880;2023-12-07T07:21:10;99990.09;;;5.81;100.00
56270;BME280;42176;43.240;27.880;2023-12-07T07:23:11;100009.28;;;6.04;100.00
56270;BME280;42176;43.240;27.880;2023-12-07T07:25:12;99994.50;;;5.74;100.00
56270;BME280;42176;43.240;27.880;2023-12-07T07:27:14;99992.00;;;5.30;100.00
56270;BME280;42176;43.240;27.880;2023-12-07T07:29:15;99999.09;;;5.07;100.00
56270;BME280;42176;43.240;27.880;2023-12-07T07:31:15;100016.56;;;5.20;100.00
56270;BME280;42176;43.240;27.880;2023-12-07T07:33:16;100004.22;;;5.47;100.00
56270;BME280;42176;43.240;27.880;2023-12-07T07:35:16;99986.56;;;5.80;100.00
56270;BME280;42176;43.240;27.880;2023-12-07T07:37:17;99997.94;;;5.87;100.00
56270;BME280;42176;43.240;27.880;2023-12-07T07:39:37;99991.16;;;5.24;100.00
56270;BME280;42176;43.240;27.880;2023-12-07T07:41:38;100018.31;;;5.18;100.00
56270;BME280;42176;43.240;27.880;2023-12-07T07:43:38;99972.69;;;5.39;100.00
56270;BME280;42176;43.240;27.880;2023-12-07T07:45:39;99989.34;;;5.51;100.00
56270;BME280;42176;43.240;27.880;2023-12-07T07:47:39;99978.81;;;5.51;100.00
56270;BME280;42176;43.240;27.880;2023-12-07T07:49:40;99976.16;;;5.58;100.00
56270;BME280;42176;43.240;27.880;2023-12-07T07:51:41;99986.63;;;5.68;100.00
56270;BME280;42176;43.240;27.880;2023-12-07T07:53:41;99999.75;;;5.75;100.00
56270;BME280;42176;43.240;27.880;2023-12-07T07:55:42;99960.38;;;5.55;100.00
56270;BME280;42176;43.240;27.880;2023-12-07T07:57:43;99984.81;;;5.79;100.00
56270;BME280;42176;43.240;27.880;2023-12-07T07:59:43;99994.38;;;6.00;100.00
56270;BME280;42176;43.240;27.880;2023-12-07T08:01:45;99985.44;;;6.31;100.00
56270;BME280;42176;43.240;27.880;2023-12-07T08:03:47;99964.78;;;5.53;100.00
56270;BME280;42176;43.240;27.880;2023-12-07T08:05:47;99992.91;;;5.28;100.00
56270;BME280;42176;43.240;27.880;2023-12-07T08:07:48;100008.69;;;5.23;100.00
56270;BME280;42176;43.240;27.880;2023-12-07T08:09:49;100004.25;;;5.41;100.00
56270;BME280;42176;43.240;27.880;2023-12-07T08:11:49;100004.22;;;5.50;100.00
56270;BME280;42176;43.240;27.880;2023-12-07T08:13:50;99991.84;;;5.77;100.00
56270;BME280;42176;43.240;27.880;2023-12-07T08:15:50;99995.22;;;6.10;100.00
56270;BME280;42176;43.240;27.880;2023-12-07T08:17:51;99994.59;;;5.46;100.00
56270;BME280;42176;43.240;27.880;2023-12-07T08:19:52;100002.56;;;5.02;100.00
56270;BME280;42176;43.240;27.880;2023-12-07T08:21:53;99998.16;;;5.22;100.00
56270;BME280;42176;43.240;27.880;2023-12-07T08:23:53;99995.41;;;5.62;100.00
56270;BME280;42176;43.240;27.880;2023-12-07T08:25:54;100021.50;;;6.13;100.00
56270;BME280;42176;43.240;27.880;2023-12-07T08:27:57;100011.22;;;5.56;100.00
56270;BME280;42176;43.240;27.880;2023-12-07T08:29:58;100015.69;;;5.18;100.00
56270;BME280;42176;43.240;27.880;2023-12-07T08:31:58;99997.25;;;5.30;100.00
56270;BME280;42176;43.240;27.880;2023-12-07T08:33:59;99997.16;;;5.61;100.00
56270;BME280;42176;43.240;27.880;2023-12-07T08:36:01;100009.28;;;5.93;100.00
56270;BME280;42176;43.240;27.880;2023-12-07T08:38:02;100003.97;;;6.12;100.00
56270;BME280;42176;43.240;27.880;2023-12-07T08:40:05;100004.00;;;6.04;100.00
56270;BME280;42176;43.240;27.880;2023-12-07T08:42:06;99984.06;;;5.46;100.00
56270;BME280;42176;43.240;27.880;2023-12-07T08:44:06;100007.81;;;5.24;100.00
56270;BME280;42176;43.240;27.880;2023-12-07T08:46:07;99993.72;;;5.47;100.00
56270;BME280;42176;43.240;27.880;2023-12-07T08:48:07;99978.78;;;5.57;100.00
56270;BME280;42176;43.240;27.880;2023-12-07T08:50:08;100001.53;;;5.69;100.00
56270;BME280;42176;43.240;27.880;2023-12-07T08:52:09;99987.41;;;5.87;100.00
56270;BME280;42176;43.240;27.880;2023-12-07T08:54:10;100014.38;;;6.37;100.00
56270;BME280;42176;43.240;27.880;2023-12-07T08:56:10;99979.50;;;5.93;100.00
56270;BME280;42176;43.240;27.880;2023-12-07T08:58:13;99990.25;;;5.36;100.00
56270;BME280;42176;43.240;27.880;2023-12-07T09:00:14;99985.03;;;5.17;100.00
56270;BME280;42176;43.240;27.880;2023-12-07T09:02:15;99991.91;;;5.64;100.00
56270;BME280;42176;43.240;27.880;2023-12-07T09:04:15;99982.09;;;6.04;100.00
56270;BME280;42176;43.240;27.880;2023-12-07T09:06:16;99993.34;;;6.31;100.00
56270;BME280;42176;43.240;27.880;2023-12-07T09:08:17;100000.38;;;6.29;100.00
56270;BME280;42176;43.240;27.880;2023-12-07T09:10:17;99998.00;;;5.74;100.00
56270;BME280;42176;43.240;27.880;2023-12-07T09:12:18;100006.88;;;5.48;100.00
56270;BME280;42176;43.240;27.880;2023-12-07T09:14:18;100009.47;;;5.59;100.00
56270;BME280;42176;43.240;27.880;2023-12-07T09:16:19;99997.06;;;5.89;100.00
56270;BME280;42176;43.240;27.880;2023-12-07T09:18:21;100010.06;;;6.22;100.00
56270;BME280;42176;43.240;27.880;2023-12-07T09:20:22;100008.38;;;6.15;100.00
56270;BME280;42176;43.240;27.880;2023-12-07T09:22:22;99992.81;;;5.56;100.00
56270;BME280;42176;43.240;27.880;2023-12-07T09:24:23;100000.78;;;5.29;100.00
56270;BME280;42176;43.240;27.880;2023-12-07T09:26:23;100009.56;;;5.22;100.00
56270;BME280;42176;43.240;27.880;2023-12-07T09:28:24;99998.06;;;5.57;100.00
56270;BME280;42176;43.240;27.880;2023-12-07T09:30:25;100011.09;;;5.85;100.00
56270;BME280;42176;43.240;27.880;2023-12-07T09:32:25;100005.97;;;5.60;100.00
56270;BME280;42176;43.240;27.880;2023-12-07T09:34:28;99990.31;;;5.01;100.00
56270;BME280;42176;43.240;27.880;2023-12-07T09:36:28;99988.59;;;4.85;100.00
56270;BME280;42176;43.240;27.880;2023-12-07T09:38:29;99997.34;;;4.93;100.00
56270;BME280;42176;43.240;27.880;2023-12-07T09:40:30;100013.94;;;5.29;100.00
56270;BME280;42176;43.240;27.880;2023-12-07T09:42:30;99977.97;;;5.44;100.00
56270;BME280;42176;43.240;27.880;2023-12-07T09:44:31;99975.31;;;5.45;100.00
56270;BME280;42176;43.240;27.880;2023-12-07T09:46:32;99989.47;;;4.96;100.00
56270;BME280;42176;43.240;27.880;2023-12-07T09:48:33;99978.13;;;4.63;100.00
56270;BME280;42176;43.240;27.880;2023-12-07T09:50:35;99992.09;;;4.84;100.00
56270;BME280;42176;43.240;27.880;2023-12-07T09:52:36;99979.78;;;5.17;100.00
56270;BME280;42176;43.240;27.880;2023-12-07T09:54:40;99982.38;;;5.36;100.00
56270;BME280;42176;43.240;27.880;2023-12-07T09:56:43;99984.16;;;5.24;100.00
56270;BME280;42176;43.240;27.880;2023-12-07T09:58:44;99963.22;;;4.73;100.00
56270;BME280;42176;43.240;27.880;2023-12-07T10:00:44;99978.13;;;4.48;100.00
56270;BME280;42176;43.240;27.880;2023-12-07T10:02:47;99989.47;;;4.40;100.00
56270;BME280;42176;43.240;27.880;2023-12-07T10:04:47;99974.59;;;4.44;100.00
56270;BME280;42176;43.240;27.880;2023-12-07T10:06:48;99985.97;;;4.65;100.00
56270;BME280;42176;43.240;27.880;2023-12-07T10:08:49;99991.19;;;5.08;100.00
56270;BME280;42176;43.240;27.880;2023-12-07T10:11:10;99989.38;;;5.37;100.00
56270;BME280;42176;43.240;27.880;2023-12-07T10:13:12;99970.91;;;5.58;100.00
56270;BME280;42176;43.240;27.880;2023-12-07T10:15:17;99921.84;;;5.48;100.00
56270;BME280;42176;43.240;27.880;2023-12-07T10:17:17;99955.00;;;5.77;100.00
56270;BME280;42176;43.240;27.880;2023-12-07T10:19:18;99954.97;;;5.86;100.00
56270;BME280;42176;43.240;27.880;2023-12-07T10:21:31;99960.50;;;5.15;100.00
56270;BME280;42176;43.240;27.880;2023-12-07T10:23:33;99989.47;;;4.47;100.00
56270;BME280;42176;43.240;27.880;2023-12-07T10:25:39;99975.47;;;4.46;100.00
56270;BME280;42176;43.240;27.880;2023-12-07T10:27:42;99949.19;;;4.91;100.00
56270;BME280;42176;43.240;27.880;2023-12-07T10:29:44;99980.59;;;5.45;100.00
56270;BME280;42176;43.240;27.880;2023-12-07T10:31:45;99985.09;;;4.89;100.00
56270;BME280;42176;43.240;27.880;2023-12-07T10:33:48;99976.34;;;4.34;100.00
56270;BME280;42176;43.240;27.880;2023-12-07T10:35:49;99983.38;;;4.51;100.00